Time;durP1;ratioP1;P1;durP2;ratioP2;P2;SDS_P1;SDS_P2;PMS_P1;PMS_P2;Temp;Humidity;BMP_temperature;BMP_pressure;BME280_temperature;BME280_humidity;BME280_pressure;Samples;Min_cycle;Max_cycle;Signal;HPM_P1;HPM_P2
2021/12/24 00:00:43;;;;;;;108.85;96.57;;;9.30;99.90;;;;;;6134199;23;20142;-86
2021/12/24 00:03:09;;;;;;;103.35;88.93;;;9.30;99.90;;;;;;6109032;23;20186;-87
2021/12/24 00:05:35;;;;;;;99.68;84.57;;;9.30;99.90;;;;;;6108414;23;20146;-86
2021/12/24 00:08:02;;;;;;;98.15;77.15;;;9.30;99.90;;;;;;6134260;23;20213;-87
2021/12/24 00:10:31;;;;;;;99.15;81.35;;;9.30;99.90;;;;;;6133962;23;20159;-86
2021/12/24 00:13:01;;;;;;;113.57;101.30;;;9.30;99.90;;;;;;6108141;23;20527;-87
2021/12/24 00:18:14;;;;;;;99.13;80.90;;;9.30;99.90;;;;;;6144480;23;20141;-87
2021/12/24 00:35:05;;;;;;;101.05;81.05;;;9.30;99.90;;;;;;6134518;23;20167;-87
2021/12/24 00:37:03;;;;;;;109.50;95.13;;;9.20;99.90;;;;;;6134758;23;20162;-87
2021/12/24 00:39:28;;;;;;;98.03;78.83;;;9.10;99.90;;;;;;6134638;23;20143;-86
2021/12/24 00:41:54;;;;;;;126.97;114.87;;;9.10;99.90;;;;;;6134415;23;20386;-86
2021/12/24 00:44:53;;;;;;;;;;;;;;;;;;;;;
2021/12/24 00:47:58;;;;;;;101.95;81.78;;;9.10;99.90;;;;;;6127245;23;20229;-86
2021/12/24 00:57:40;;;;;;;;;;;;;;;;;;;;;
2021/12/24 01:00:41;;;;;;;128.63;113.30;;;9.10;99.90;;;;;;6125730;23;20158;-86
2021/12/24 01:06:30;;;;;;;;;;;;;;;;;;;;;
2021/12/24 01:09:20;;;;;;;113.10;101.10;;;9.10;99.90;;;;;;6124999;23;20218;-86
2021/12/24 01:11:54;;;;;;;103.60;83.35;;;9.10;99.90;;;;;;6010538;23;20160;-86
2021/12/24 01:45:00;;;;;;;87.53;57.17;;;9.10;99.90;;;;;;5992190;23;20202;-88
2021/12/24 01:48:22;;;;;;;91.05;63.47;;;9.10;99.90;;;;;;6036403;23;20161;-88
2021/12/24 01:51:33;;;;;;;;;;;;;;;;;;;;;
2021/12/24 01:54:30;;;;;;;90.55;65.03;;;9.10;99.90;;;;;;6045355;23;20243;-88
2021/12/24 01:57:58;;;;;;;;;;;;;;;;;;;;;
2021/12/24 02:01:27;;;;;;;;;;;;;;;;;;;;;
2021/12/24 02:08:21;;;;;;;;;;;;;;;;;;;;;
2021/12/24 02:14:39;;;;;;;86.97;57.67;;;9.10;99.90;;;;;;6036857;23;20172;-87
2021/12/24 02:29:55;;;;;;;87.53;55.80;;;9.20;99.90;;;;;;6125620;23;20165;-87
2021/12/24 02:32:29;;;;;;;96.90;73.57;;;9.20;99.90;;;;;;6100010;23;20143;-87
2021/12/24 02:35:27;;;;;;;95.40;57.53;;;9.20;99.90;;;;;;6098371;23;20171;-87
2021/12/24 02:38:33;;;;;;;;;;;;;;;;;;;;;
2021/12/24 02:41:43;;;;;;;97.32;65.65;;;9.20;99.90;;;;;;6123561;23;20652;-88
2021/12/24 02:44:38;;;;;;;;;;;;;;;;;;;;;
2021/12/24 02:54:11;;;;;;;;;;;;;;;;;;;;;
2021/12/24 02:57:10;;;;;;;96.60;73.43;;;9.20;99.90;;;;;;6124203;23;20229;-87
2021/12/24 03:00:39;;;;;;;92.22;63.90;;;9.30;99.90;;;;;;6094581;23;20608;-87
2021/12/24 03:03:23;;;;;;;;;;;;;;;;;;;;;
2021/12/24 03:09:28;;;;;;;;;;;;;;;;;;;;;
2021/12/24 03:12:16;;;;;;;;;;;;;;;;;;;;;
2021/12/24 03:15:22;;;;;;;105.97;91.13;;;9.30;99.90;;;;;;6095417;23;20587;-87
2021/12/24 03:21:56;;;;;;;94.75;68.07;;;9.20;99.90;;;;;;6124471;23;20169;-87
2021/12/24 03:24:36;;;;;;;95.07;60.47;;;9.20;99.90;;;;;;6125030;23;20190;-87
2021/12/24 03:27:25;;;;;;;90.50;60.88;;;9.20;99.90;;;;;;6125304;23;20127;-87
2021/12/24 03:30:52;;;;;;;98.75;66.00;;;9.20;99.90;;;;;;6099347;23;20161;-87
2021/12/24 03:33:40;;;;;;;93.05;63.70;;;9.20;99.90;;;;;;6118054;23;20228;-87
2021/12/24 03:36:26;;;;;;;96.88;72.15;;;9.20;99.90;;;;;;6090429;23;20151;-88
2021/12/24 03:39:28;;;;;;;98.53;57.90;;;9.20;99.90;;;;;;6098209;23;20150;-88
2021/12/24 03:42:42;;;;;;;91.90;62.50;;;9.20;99.90;;;;;;6096090;23;20239;-87
2021/12/24 03:59:15;;;;;;;92.47;66.88;;;9.10;99.90;;;;;;6063882;23;20183;-88
2021/12/24 04:02:22;;;;;;;96.82;78.50;;;9.10;99.90;;;;;;6130917;23;20193;-87
2021/12/24 04:05:46;;;;;;;;;;;;;;;;;;;;;
2021/12/24 04:12:14;;;;;;;;;;;;;;;;;;;;;
2021/12/24 04:15:22;;;;;;;103.80;89.20;;;9.00;99.90;;;;;;6117847;23;20257;-88
2021/12/24 04:17:57;;;;;;;103.53;76.97;;;9.00;99.90;;;;;;6089691;23;20196;-87
2021/12/24 04:27:34;;;;;;;105.78;90.85;;;9.00;99.90;;;;;;6124606;23;20228;-87
2021/12/24 04:30:38;;;;;;;;;;;;;;;;;;;;;
2021/12/24 04:33:36;;;;;;;97.90;81.68;;;9.10;99.90;;;;;;6123917;23;20310;-87
2021/12/24 04:37:07;;;;;;;97.65;70.88;;;9.10;99.90;;;;;;6098127;23;20608;-88
2021/12/24 04:52:50;;;;;;;101.60;71.03;;;9.10;99.90;;;;;;6037051;23;20621;-87
2021/12/24 05:12:36;;;;;;;;;;;;;;;;;;;;;
2021/12/24 05:16:04;;;;;;;;;;;;;;;;;;;;;
2021/12/24 05:22:41;;;;;;;97.63;70.97;;;9.30;99.90;;;;;;5945976;24;20565;-87
2021/12/24 05:32:25;;;;;;;111.88;99.43;;;9.30;99.90;;;;;;6021106;23;20307;-86
2021/12/24 05:35:39;;;;;;;111.28;85.60;;;9.30;99.90;;;;;;6081987;22;20199;-88
2021/12/24 05:42:35;;;;;;;;;;;;;;;;;;;;;
2021/12/24 05:45:49;;;;;;;;;;;;;;;;;;;;;
2021/12/24 05:51:48;;;;;;;100.30;79.60;;;9.30;99.90;;;;;;6156310;23;20141;-87
2021/12/24 05:55:12;;;;;;;102.32;76.55;;;9.30;99.90;;;;;;6096031;23;20163;-87
2021/12/24 05:58:52;;;;;;;;;;;;;;;;;;;;;
2021/12/24 06:15:24;;;;;;;102.80;77.60;;;9.20;99.90;;;;;;6127814;23;20200;-87
2021/12/24 06:18:30;;;;;;;97.00;73.70;;;9.20;99.90;;;;;;6128136;23;20165;-87
2021/12/24 06:25:07;;;;;;;99.20;70.70;;;9.10;99.90;;;;;;6119611;23;20185;-87
2021/12/24 06:32:04;;;;;;;95.45;66.63;;;9.10;99.90;;;;;;6090765;23;20155;-87
2021/12/24 06:42:02;;;;;;;;;;;;;;;;;;;;;
2021/12/24 06:44:29;;;;;;;101.65;78.55;;;9.10;99.90;;;;;;6118423;23;20277;-88
2021/12/24 06:47:08;;;;;;;103.20;86.07;;;9.20;99.90;;;;;;6122305;23;20173;-88
2021/12/24 06:49:46;;;;;;;104.78;88.88;;;9.20;99.90;;;;;;6121639;23;20763;-88
2021/12/24 06:52:11;;;;;;;101.57;81.18;;;9.20;99.90;;;;;;6095920;23;20212;-89
2021/12/24 06:54:40;;;;;;;95.23;66.93;;;9.20;99.90;;;;;;6122105;23;20166;-89
2021/12/24 06:57:12;;;;;;;101.93;73.93;;;9.30;99.90;;;;;;6122214;23;20142;-89
2021/12/24 06:59:40;;;;;;;92.38;51.88;;;9.20;99.90;;;;;;6096677;23;20147;-89
2021/12/24 07:02:41;;;;;;;90.30;54.65;;;9.30;99.90;;;;;;6122175;23;20162;-89
2021/12/24 07:05:07;;;;;;;89.05;49.63;;;9.30;99.90;;;;;;6096413;23;20489;-89
2021/12/24 07:07:36;;;;;;;99.35;67.18;;;9.30;99.90;;;;;;6122588;23;20588;-89
2021/12/24 07:10:02;;;;;;;93.20;57.42;;;9.20;99.90;;;;;;6096274;23;20151;-89
2021/12/24 07:12:28;;;;;;;98.35;52.72;;;9.30;99.90;;;;;;6096612;23;20172;-89
2021/12/24 07:14:54;;;;;;;91.17;48.10;;;9.30;99.90;;;;;;6096416;23;20198;-89
2021/12/24 07:20:33;;;;;;;83.43;33.97;;;9.30;99.90;;;;;;6122145;23;20142;-89
2021/12/24 07:23:01;;;;;;;85.50;35.47;;;9.30;99.90;;;;;;6121515;23;20181;-89
2021/12/24 07:25:33;;;;;;;91.80;46.05;;;9.30;99.90;;;;;;6121855;23;20190;-89
2021/12/24 07:28:01;;;;;;;86.80;40.70;;;9.30;99.90;;;;;;6095958;23;20151;-89
2021/12/24 07:30:28;;;;;;;88.28;42.80;;;9.30;99.90;;;;;;6121920;23;20139;-89
2021/12/24 07:32:57;;;;;;;83.35;29.65;;;9.40;99.90;;;;;;6096999;23;20508;-89
2021/12/24 07:35:23;;;;;;;91.40;40.35;;;9.40;99.90;;;;;;6121961;23;20150;-89
2021/12/24 07:37:49;;;;;;;83.10;34.58;;;9.30;99.90;;;;;;6122092;23;20143;-89
2021/12/24 07:40:19;;;;;;;89.60;38.22;;;9.30;99.90;;;;;;6121798;23;20143;-89
2021/12/24 07:42:47;;;;;;;82.75;34.13;;;9.40;99.90;;;;;;6095912;23;20163;-88
2021/12/24 07:45:17;;;;;;;89.07;45.80;;;9.40;99.90;;;;;;6121698;23;20163;-88
2021/12/24 07:47:44;;;;;;;91.43;52.42;;;9.30;99.90;;;;;;6122083;23;20139;-89
2021/12/24 07:52:54;;;;;;;85.72;38.80;;;9.30;99.90;;;;;;6131512;23;20154;-89
2021/12/24 07:55:24;;;;;;;87.83;43.63;;;9.30;99.90;;;;;;6122053;23;20146;-89
2021/12/24 07:57:59;;;;;;;96.93;64.18;;;9.30;99.90;;;;;;6121641;23;20139;-88
2021/12/24 08:00:26;;;;;;;93.78;61.85;;;9.20;99.90;;;;;;6122692;23;20138;-88
2021/12/24 08:02:54;;;;;;;98.85;74.88;;;9.20;99.90;;;;;;6123556;23;20143;-88
2021/12/24 08:05:23;;;;;;;107.15;75.18;;;9.20;99.90;;;;;;6122867;23;20506;-88
2021/12/24 08:07:53;;;;;;;96.40;66.63;;;9.10;99.90;;;;;;6097005;23;20222;-89
2021/12/24 08:10:21;;;;;;;97.15;66.35;;;9.20;99.90;;;;;;6097347;23;20222;-89
2021/12/24 08:12:47;;;;;;;101.78;77.07;;;9.20;99.90;;;;;;6123491;23;20528;-89
2021/12/24 08:15:13;;;;;;;93.47;60.37;;;9.20;99.90;;;;;;6122879;23;20143;-89
2021/12/24 08:17:39;;;;;;;98.23;54.87;;;9.20;99.90;;;;;;6096999;23;20815;-89
2021/12/24 08:20:06;;;;;;;95.82;45.08;;;9.20;99.90;;;;;;6122866;23;20151;-89
2021/12/24 08:22:32;;;;;;;102.38;45.75;;;9.20;99.90;;;;;;6123278;23;20660;-88
2021/12/24 08:24:58;;;;;;;95.72;62.83;;;9.20;99.90;;;;;;6122739;23;20254;-89
2021/12/24 08:27:29;;;;;;;101.47;67.63;;;9.20;99.90;;;;;;6097281;23;20170;-88
2021/12/24 08:29:55;;;;;;;95.38;46.60;;;9.20;99.90;;;;;;6097334;23;20150;-88
2021/12/24 08:32:21;;;;;;;94.87;58.50;;;9.30;99.90;;;;;;6097001;23;20154;-89
2021/12/24 08:34:47;;;;;;;88.77;49.07;;;9.30;99.90;;;;;;6123429;23;20167;-89
2021/12/24 08:37:13;;;;;;;93.05;54.25;;;9.30;99.90;;;;;;6122967;23;20142;-88
2021/12/24 08:39:41;;;;;;;93.97;49.03;;;9.30;99.90;;;;;;6122724;23;20145;-88
2021/12/24 08:42:10;;;;;;;91.03;36.85;;;9.30;99.90;;;;;;6122645;23;20158;-89
2021/12/24 08:44:59;;;;;;;86.55;32.50;;;9.30;99.90;;;;;;6096498;23;20194;-89
2021/12/24 08:47:27;;;;;;;87.55;44.92;;;9.30;99.90;;;;;;6079348;23;20154;-89
2021/12/24 08:50:06;;;;;;;;;;;;;;;;;;;;;
2021/12/24 08:52:46;;;;;;;94.82;58.47;;;9.20;99.90;;;;;;6123405;23;20210;-89
2021/12/24 08:55:25;;;;;;;95.00;54.60;;;9.20;99.90;;;;;;6097868;23;20151;-89
2021/12/24 08:58:12;;;;;;;89.93;37.78;;;9.30;99.90;;;;;;6123475;23;20499;-89
2021/12/24 09:00:38;;;;;;;93.97;41.88;;;9.30;99.90;;;;;;6097379;23;20139;-89
2021/12/24 09:03:16;;;;;;;88.63;39.47;;;9.30;99.90;;;;;;6096749;23;20233;-89
2021/12/24 09:06:00;;;;;;;89.00;38.90;;;9.30;99.90;;;;;;6097978;23;20230;-89
2021/12/24 09:08:36;;;;;;;85.15;30.92;;;9.30;99.90;;;;;;6096690;23;20496;-89
2021/12/24 09:11:03;;;;;;;88.40;31.45;;;9.40;99.90;;;;;;6096232;23;20161;-89
2021/12/24 09:13:38;;;;;;;86.55;29.02;;;9.40;99.90;;;;;;6122861;23;20170;-89
2021/12/24 09:16:04;;;;;;;86.43;26.70;;;9.40;99.90;;;;;;6096964;23;20143;-89
2021/12/24 09:18:41;;;;;;;85.43;33.85;;;9.50;99.90;;;;;;6096852;23;20155;-89
2021/12/24 09:21:30;;;;;;;89.15;42.50;;;9.50;99.90;;;;;;6097058;23;20139;-89
2021/12/24 09:23:58;;;;;;;87.45;40.13;;;9.50;99.90;;;;;;6070145;23;20202;-89
2021/12/24 09:26:32;;;;;;;87.03;47.65;;;9.50;99.90;;;;;;6094309;23;20150;-88
2021/12/24 09:29:05;;;;;;;89.95;52.40;;;9.60;99.90;;;;;;6122728;23;20176;-88
2021/12/24 09:31:31;;;;;;;97.43;59.53;;;9.60;99.90;;;;;;6096499;23;20150;-88
2021/12/24 09:34:21;;;;;;;95.93;58.40;;;9.60;99.90;;;;;;6122792;23;20174;-89
2021/12/24 09:36:46;;;;;;;93.32;57.22;;;9.50;99.90;;;;;;6122739;23;20383;-89
2021/12/24 09:39:24;;;;;;;88.13;41.50;;;9.60;99.90;;;;;;6096761;23;20151;-89
2021/12/24 09:41:58;;;;;;;89.55;47.78;;;9.60;99.90;;;;;;6097753;23;20158;-89
2021/12/24 09:44:24;;;;;;;93.20;38.47;;;9.60;99.90;;;;;;6122369;23;20193;-89
2021/12/24 09:46:50;;;;;;;85.27;39.13;;;9.50;99.90;;;;;;6096927;23;20150;-89
2021/12/24 09:49:28;;;;;;;94.60;67.00;;;9.60;99.90;;;;;;6122572;23;20401;-89
2021/12/24 09:51:56;;;;;;;97.00;66.40;;;9.70;99.90;;;;;;6096721;23;20135;-88
2021/12/24 09:54:24;;;;;;;110.57;94.20;;;9.70;99.90;;;;;;6097019;23;20167;-88
2021/12/24 09:56:53;;;;;;;112.43;99.30;;;9.70;99.90;;;;;;6122979;23;20173;-87
2021/12/24 09:59:19;;;;;;;110.20;93.45;;;9.80;99.90;;;;;;6122450;23;20148;-88
2021/12/24 10:02:08;;;;;;;103.95;92.32;;;9.70;99.90;;;;;;6098046;23;20204;-88
2021/12/24 10:04:38;;;;;;;109.93;98.13;;;9.70;99.90;;;;;;6122180;23;20320;-88
2021/12/24 10:07:07;;;;;;;109.32;97.40;;;9.70;99.90;;;;;;6122455;23;20591;-88
2021/12/24 10:09:38;;;;;;;113.45;101.85;;;9.70;99.90;;;;;;6122503;23;20138;-88
2021/12/24 10:12:19;;;;;;;105.70;93.80;;;9.80;99.90;;;;;;6096683;23;20154;-88
2021/12/24 10:14:51;;;;;;;105.05;90.78;;;9.70;99.90;;;;;;6122809;23;20162;-88
2021/12/24 10:17:29;;;;;;;104.60;90.55;;;9.80;99.90;;;;;;6122295;23;20204;-88
2021/12/24 10:20:08;;;;;;;106.53;95.20;;;9.90;99.90;;;;;;6122397;23;20150;-88
2021/12/24 10:22:54;;;;;;;105.53;85.65;;;9.90;99.90;;;;;;6122470;23;20208;-88
2021/12/24 10:25:29;;;;;;;105.25;93.93;;;9.90;99.90;;;;;;6124795;23;20170;-87
2021/12/24 10:28:13;;;;;;;99.40;64.65;;;9.90;99.90;;;;;;6123272;23;20480;-88
2021/12/24 10:30:39;;;;;;;94.82;72.63;;;9.90;99.90;;;;;;6123586;23;20123;-88
2021/12/24 10:33:09;;;;;;;113.80;100.70;;;10.00;99.90;;;;;;6096453;23;20182;-88
2021/12/24 10:35:35;;;;;;;104.80;82.47;;;10.10;99.90;;;;;;6096476;23;20497;-88
2021/12/24 10:38:19;;;;;;;88.80;51.00;;;10.20;99.90;;;;;;6096435;23;20612;-88
2021/12/24 10:40:59;;;;;;;84.70;37.72;;;10.30;99.90;;;;;;6097168;23;20437;-88
2021/12/24 10:43:30;;;;;;;78.88;23.20;;;10.40;99.90;;;;;;6096536;23;20244;-88
2021/12/24 10:46:19;;;;;;;81.63;22.75;;;10.50;99.90;;;;;;6096436;23;20154;-88
2021/12/24 10:49:17;;;;;;;80.60;18.30;;;10.60;99.90;;;;;;6122670;23;20465;-88
2021/12/24 10:57:16;;;;;;;78.38;20.00;;;10.60;99.90;;;;;;6116451;23;20214;-88
2021/12/24 10:59:48;;;;;;;78.47;21.83;;;10.60;99.90;;;;;;6096391;23;20606;-88
2021/12/24 11:02:13;;;;;;;82.07;34.60;;;10.60;99.90;;;;;;6096792;23;20135;-88
2021/12/24 11:04:39;;;;;;;76.77;19.80;;;10.60;99.90;;;;;;6121949;23;20559;-87
2021/12/24 11:07:36;;;;;;;82.07;22.80;;;10.50;99.90;;;;;;6122483;23;20449;-87
2021/12/24 11:10:20;;;;;;;82.55;20.35;;;10.50;99.90;;;;;;6096445;23;20783;-88
2021/12/24 11:13:07;;;;;;;76.00;18.13;;;10.60;99.90;;;;;;6122616;23;20155;-87
2021/12/24 11:15:36;;;;;;;79.50;17.90;;;10.60;99.90;;;;;;6096235;23;20142;-87
2021/12/24 11:18:13;;;;;;;77.05;17.40;;;10.60;99.90;;;;;;6122091;23;20151;-87
2021/12/24 11:20:39;;;;;;;77.07;18.75;;;10.60;99.90;;;;;;6122404;23;20138;-87
2021/12/24 11:23:06;;;;;;;76.50;20.15;;;10.60;99.90;;;;;;6122615;23;20143;-87
2021/12/24 11:25:38;;;;;;;80.75;22.33;;;10.70;99.90;;;;;;6121921;23;20645;-88
2021/12/24 11:28:05;;;;;;;79.85;29.17;;;10.70;99.90;;;;;;6122163;23;20187;-87
2021/12/24 11:30:34;;;;;;;84.68;29.40;;;10.70;99.90;;;;;;6096078;23;20151;-87
2021/12/24 11:33:00;;;;;;;82.97;35.90;;;10.70;99.90;;;;;;6121758;23;20142;-87
2021/12/24 11:35:31;;;;;;;80.72;35.28;;;10.70;99.90;;;;;;6096677;23;20186;-88
2021/12/24 11:37:59;;;;;;;87.05;42.00;;;10.80;99.90;;;;;;6123178;23;20514;-87
2021/12/24 11:40:26;;;;;;;95.38;53.95;;;10.80;99.90;;;;;;6123427;23;20128;-87
2021/12/24 11:43:04;;;;;;;88.18;52.90;;;10.90;99.90;;;;;;6122955;23;20450;-88
2021/12/24 11:45:33;;;;;;;90.72;49.60;;;10.90;99.90;;;;;;6098374;23;20488;-88
2021/12/24 11:48:06;;;;;;;89.72;51.58;;;10.80;99.90;;;;;;6097017;23;20166;-88
2021/12/24 11:50:38;;;;;;;90.32;59.38;;;10.70;99.90;;;;;;6097955;23;20143;-88
2021/12/24 11:53:19;;;;;;;90.75;49.30;;;10.80;99.90;;;;;;6097962;23;20600;-89
2021/12/24 11:56:19;;;;;;;89.90;52.75;;;10.80;99.90;;;;;;6123462;23;20142;-89
2021/12/24 11:59:20;;;;;;;88.68;46.95;;;10.90;99.90;;;;;;6091129;23;20158;-89
2021/12/24 12:02:32;;;;;;;91.40;43.40;;;10.90;99.90;;;;;;6122111;23;20181;-89
2021/12/24 12:06:05;;;;;;;85.00;42.80;;;10.90;99.90;;;;;;6122697;23;20497;-89
2021/12/24 12:08:37;;;;;;;84.50;32.75;;;10.90;99.90;;;;;;6116544;23;20150;-89
2021/12/24 12:12:00;;;;;;;85.10;39.03;;;10.90;99.90;;;;;;6099847;23;20154;-89
2021/12/24 12:14:33;;;;;;;89.22;44.38;;;10.90;99.90;;;;;;6083475;23;20174;-89
2021/12/24 12:17:41;;;;;;;86.38;37.95;;;10.90;99.90;;;;;;6097065;23;20155;-89
2021/12/24 12:20:49;;;;;;;82.13;31.70;;;10.90;99.90;;;;;;6093914;23;20154;-89
2021/12/24 12:27:49;;;;;;;81.03;25.85;;;10.90;99.90;;;;;;6033932;23;20145;-89
2021/12/24 12:33:51;;;;;;;78.78;24.77;;;10.90;99.90;;;;;;6023924;23;20672;-89
2021/12/24 12:36:44;;;;;;;85.15;31.85;;;10.80;99.90;;;;;;6093116;23;20182;-89
2021/12/24 12:39:28;;;;;;;81.55;35.63;;;10.80;99.90;;;;;;6096526;23;20154;-89
2021/12/24 12:42:01;;;;;;;81.40;26.42;;;10.90;99.90;;;;;;6098699;23;20614;-89
2021/12/24 12:44:28;;;;;;;81.80;27.75;;;10.90;99.90;;;;;;6124336;23;20727;-85
2021/12/24 12:47:16;;;;;;;80.43;25.15;;;10.90;99.90;;;;;;6131530;23;20146;-85
2021/12/24 12:49:42;;;;;;;83.53;31.00;;;11.00;99.90;;;;;;6130350;23;20577;-85
2021/12/24 12:52:34;;;;;;;91.25;35.97;;;11.00;99.90;;;;;;6105463;23;20181;-85
2021/12/24 12:55:02;;;;;;;78.53;25.60;;;11.00;99.90;;;;;;6131516;23;20169;-85
2021/12/24 12:57:33;;;;;;;83.88;33.25;;;11.00;99.90;;;;;;6130300;23;20186;-84
2021/12/24 13:00:08;;;;;;;82.30;33.45;;;11.00;99.90;;;;;;6103650;23;20135;-84
2021/12/24 13:02:52;;;;;;;85.97;33.35;;;10.90;99.90;;;;;;6130728;23;20476;-85
2021/12/24 13:05:18;;;;;;;83.82;29.15;;;10.90;99.90;;;;;;6104835;23;20189;-85
2021/12/24 13:07:44;;;;;;;86.23;30.10;;;10.90;99.90;;;;;;6129925;23;20139;-85
2021/12/24 13:10:09;;;;;;;82.97;28.97;;;10.80;99.90;;;;;;6130819;23;20148;-85
2021/12/24 13:12:35;;;;;;;81.20;31.30;;;10.80;99.90;;;;;;6130249;23;20196;-85
2021/12/24 13:15:01;;;;;;;82.60;31.47;;;10.90;99.90;;;;;;6105746;23;20181;-85
2021/12/24 13:17:35;;;;;;;84.35;34.00;;;10.90;99.90;;;;;;6104038;23;20234;-84
2021/12/24 13:22:57;;;;;;;79.88;27.85;;;10.80;99.90;;;;;;6050391;23;20525;-85
2021/12/24 13:25:24;;;;;;;77.37;25.53;;;10.80;99.90;;;;;;6129098;23;20162;-85
2021/12/24 13:27:52;;;;;;;84.55;23.88;;;10.80;99.90;;;;;;6104260;23;20387;-85
2021/12/24 13:30:19;;;;;;;81.05;25.40;;;10.70;99.90;;;;;;6104985;23;20230;-84
2021/12/24 13:32:50;;;;;;;78.80;28.27;;;10.70;99.90;;;;;;6130903;23;20138;-85
2021/12/24 13:35:19;;;;;;;80.28;25.20;;;10.70;99.90;;;;;;6105995;23;20149;-85
2021/12/24 13:37:46;;;;;;;80.47;22.42;;;10.70;99.90;;;;;;6130309;23;20147;-85
2021/12/24 13:40:21;;;;;;;78.22;23.27;;;10.70;99.90;;;;;;6128442;23;20143;-85
2021/12/24 13:42:58;;;;;;;82.60;26.88;;;10.70;99.90;;;;;;6101445;23;20169;-84
2021/12/24 13:45:27;;;;;;;82.90;36.45;;;10.60;99.90;;;;;;6105046;23;20627;-84
2021/12/24 13:48:07;;;;;;;90.78;37.38;;;10.50;99.90;;;;;;6104230;23;20147;-85
2021/12/24 13:56:40;;;;;;;86.30;48.30;;;10.50;99.90;;;;;;6127448;23;20154;-85
2021/12/24 13:59:07;;;;;;;96.40;53.53;;;10.50;99.90;;;;;;6100883;23;20147;-85
2021/12/24 14:01:33;;;;;;;106.55;64.00;;;10.50;99.90;;;;;;6126891;23;20143;-85
2021/12/24 14:04:01;;;;;;;90.95;46.75;;;10.40;99.90;;;;;;6100033;23;20183;-84
2021/12/24 14:06:42;;;;;;;83.32;28.60;;;10.40;99.90;;;;;;6101499;23;20188;-85
2021/12/24 14:09:16;;;;;;;83.22;33.08;;;10.30;99.90;;;;;;6100120;23;20135;-84
2021/12/24 14:11:43;;;;;;;86.13;28.88;;;10.30;99.90;;;;;;6126268;23;20150;-85
2021/12/24 14:14:19;;;;;;;87.00;26.17;;;10.30;99.90;;;;;;6126098;23;20162;-85
2021/12/24 14:19:28;;;;;;;83.20;20.37;;;10.30;99.90;;;;;;6126598;23;20150;-85
2021/12/24 14:22:09;;;;;;;81.25;18.83;;;10.30;99.90;;;;;;6100752;23;20145;-84
2021/12/24 14:24:36;;;;;;;76.55;18.67;;;10.30;99.90;;;;;;6127120;23;20178;-84
2021/12/24 14:27:08;;;;;;;81.80;19.58;;;10.30;99.90;;;;;;6101306;23;20174;-85
2021/12/24 14:29:37;;;;;;;76.43;18.30;;;10.30;99.90;;;;;;6110112;23;20165;-84
2021/12/24 14:32:07;;;;;;;95.00;21.67;;;10.30;99.90;;;;;;6111477;23;20154;-85
2021/12/24 14:34:50;;;;;;;79.57;20.33;;;10.30;99.90;;;;;;6112749;23;20171;-83
2021/12/24 14:37:20;;;;;;;81.07;20.08;;;10.30;99.90;;;;;;6114245;23;20161;-85
2021/12/24 14:39:49;;;;;;;82.00;19.77;;;10.30;99.90;;;;;;6105178;23;20147;-85
2021/12/24 14:42:23;;;;;;;80.85;20.58;;;10.30;99.90;;;;;;6131486;23;20146;-85
2021/12/24 14:44:54;;;;;;;76.90;16.52;;;10.30;99.90;;;;;;6131954;23;20205;-85
2021/12/24 14:47:25;;;;;;;79.47;18.48;;;10.30;99.90;;;;;;6104475;23;20210;-84
2021/12/24 14:50:01;;;;;;;76.03;17.92;;;10.30;99.90;;;;;;6131949;23;20123;-85
2021/12/24 14:52:29;;;;;;;78.53;19.92;;;10.30;99.90;;;;;;6105439;23;20142;-85
2021/12/24 14:55:15;;;;;;;74.15;16.77;;;10.30;99.90;;;;;;6131058;23;20163;-84
2021/12/24 14:57:58;;;;;;;81.47;17.65;;;10.30;99.90;;;;;;6131531;23;20150;-85
2021/12/24 15:00:33;;;;;;;83.03;20.23;;;10.30;99.90;;;;;;6106284;23;20149;-85
2021/12/24 15:03:04;;;;;;;78.90;21.25;;;10.20;99.90;;;;;;6131930;23;20135;-85
2021/12/24 15:05:36;;;;;;;78.45;16.50;;;10.20;99.90;;;;;;6106317;23;20194;-85
2021/12/24 15:08:30;;;;;;;83.25;19.13;;;10.20;99.90;;;;;;6105632;23;20197;-85
2021/12/24 15:11:31;;;;;;;80.45;20.80;;;10.20;99.90;;;;;;6129685;23;20153;-85
2021/12/24 15:14:01;;;;;;;80.03;24.77;;;10.20;99.90;;;;;;6084765;23;20170;-85
2021/12/24 15:16:31;;;;;;;104.95;76.38;;;10.10;99.90;;;;;;6105300;23;20495;-85
2021/12/24 15:18:59;;;;;;;196.15;180.50;;;10.20;99.90;;;;;;6131726;23;20375;-86
2021/12/24 15:21:26;;;;;;;82.60;25.58;;;10.30;99.90;;;;;;6106765;23;20155;-85
2021/12/24 15:23:54;;;;;;;76.85;19.60;;;10.30;99.90;;;;;;6132745;23;20181;-85
2021/12/24 15:26:20;;;;;;;77.47;17.33;;;10.30;99.90;;;;;;6132165;23;20143;-86
2021/12/24 15:28:48;;;;;;;78.82;25.25;;;10.20;99.90;;;;;;6132442;23;20158;-85
2021/12/24 15:31:16;;;;;;;79.25;22.30;;;10.10;99.90;;;;;;6106570;23;20146;-85
2021/12/24 15:33:42;;;;;;;79.78;18.45;;;10.10;99.90;;;;;;6132570;23;20499;-85
2021/12/24 15:36:09;;;;;;;83.70;24.07;;;10.00;99.90;;;;;;6106521;23;20153;-86
2021/12/24 15:38:36;;;;;;;88.80;38.90;;;10.00;99.90;;;;;;6106527;23;20147;-85
2021/12/24 15:41:02;;;;;;;77.80;25.63;;;10.00;99.90;;;;;;6107124;23;20151;-86
2021/12/24 15:43:28;;;;;;;77.72;25.13;;;10.00;99.90;;;;;;6131167;23;20190;-86
2021/12/24 15:45:54;;;;;;;94.93;26.20;;;10.00;99.90;;;;;;6131795;23;20138;-86
2021/12/24 15:48:22;;;;;;;85.30;22.25;;;10.00;99.90;;;;;;6107032;23;20449;-85
2021/12/24 15:50:47;;;;;;;78.47;22.60;;;10.00;99.90;;;;;;6106639;23;20174;-85
2021/12/24 15:53:13;;;;;;;84.47;33.33;;;10.00;99.90;;;;;;6103964;23;20167;-85
2021/12/24 15:55:40;;;;;;;84.85;39.72;;;9.90;99.90;;;;;;6105129;23;20871;-85
2021/12/24 15:58:07;;;;;;;113.25;59.25;;;9.90;99.90;;;;;;6104332;23;20178;-85
2021/12/24 16:00:35;;;;;;;83.80;38.13;;;9.90;99.90;;;;;;6131364;23;20588;-85
2021/12/24 16:03:00;;;;;;;95.38;56.95;;;9.90;99.90;;;;;;6105213;23;20230;-85
2021/12/24 16:05:26;;;;;;;101.23;67.47;;;9.80;99.90;;;;;;6130099;23;20539;-85
2021/12/24 16:07:52;;;;;;;94.23;61.43;;;9.70;99.90;;;;;;6105918;23;20181;-85
2021/12/24 16:10:17;;;;;;;93.80;53.53;;;9.70;99.90;;;;;;6105857;23;20135;-85
2021/12/24 16:12:43;;;;;;;92.97;54.33;;;9.70;99.90;;;;;;6103838;23;20233;-85
2021/12/24 16:15:12;;;;;;;111.13;66.67;;;9.60;99.90;;;;;;6102604;23;20166;-85
2021/12/24 16:17:38;;;;;;;116.35;103.75;;;9.60;99.90;;;;;;6103219;23;20204;-85
2021/12/24 16:20:05;;;;;;;105.85;91.82;;;9.50;99.90;;;;;;6129412;23;20168;-85
2021/12/24 16:22:31;;;;;;;117.78;96.00;;;9.50;99.90;;;;;;6103421;23;20159;-84
2021/12/24 16:24:57;;;;;;;119.50;101.20;;;9.50;99.90;;;;;;6104301;23;20634;-84
2021/12/24 16:27:22;;;;;;;102.40;86.93;;;9.40;99.90;;;;;;6101299;23;20142;-85
2021/12/24 16:29:56;;;;;;;111.97;96.73;;;9.40;99.90;;;;;;6103937;23;20381;-86
2021/12/24 16:32:25;;;;;;;112.90;100.18;;;9.40;99.90;;;;;;6128878;23;20146;-85
2021/12/24 16:34:52;;;;;;;96.15;67.40;;;9.40;99.90;;;;;;6128836;23;20181;-86
2021/12/24 16:37:18;;;;;;;104.70;82.93;;;9.40;99.90;;;;;;6129060;23;20147;-86
2021/12/24 16:39:47;;;;;;;94.07;63.75;;;9.40;99.90;;;;;;6127961;23;20169;-86
2021/12/24 16:42:15;;;;;;;101.63;67.45;;;9.50;99.90;;;;;;6102446;23;20151;-86
2021/12/24 16:44:41;;;;;;;91.60;62.08;;;9.50;99.90;;;;;;6128564;23;20179;-85
2021/12/24 16:47:08;;;;;;;111.97;89.72;;;9.40;99.90;;;;;;6127491;23;20138;-85
2021/12/24 16:49:35;;;;;;;109.70;94.28;;;9.40;99.90;;;;;;6101986;23;20178;-85
2021/12/24 16:52:01;;;;;;;101.53;80.97;;;9.30;99.90;;;;;;6102513;23;20229;-85
2021/12/24 16:54:27;;;;;;;122.68;105.35;;;9.30;99.90;;;;;;6128420;23;20198;-85
2021/12/24 16:56:54;;;;;;;102.57;87.90;;;9.30;99.90;;;;;;6102016;23;20157;-86
2021/12/24 16:59:20;;;;;;;102.57;80.95;;;9.30;99.90;;;;;;6102328;23;20174;-85
2021/12/24 17:01:50;;;;;;;105.38;86.85;;;9.30;99.90;;;;;;6128036;23;20603;-85
2021/12/24 17:04:18;;;;;;;93.65;59.53;;;9.20;99.90;;;;;;6127748;23;20631;-86
2021/12/24 17:06:44;;;;;;;116.07;89.13;;;9.30;99.90;;;;;;6127653;23;20167;-85
2021/12/24 17:09:10;;;;;;;100.37;73.47;;;9.20;99.90;;;;;;6128097;23;20146;-86
2021/12/24 17:11:36;;;;;;;105.13;89.93;;;9.10;99.90;;;;;;6127683;23;20154;-86
2021/12/24 17:14:02;;;;;;;102.25;84.25;;;9.10;99.90;;;;;;6128475;23;20398;-85
2021/12/24 17:16:28;;;;;;;99.65;73.97;;;9.00;99.90;;;;;;6101764;23;20177;-86
2021/12/24 17:18:54;;;;;;;111.90;96.13;;;9.10;99.90;;;;;;6127846;23;20142;-86
2021/12/24 17:21:20;;;;;;;111.13;91.87;;;9.00;99.90;;;;;;6128343;23;20396;-85
2021/12/24 17:23:47;;;;;;;107.57;92.90;;;8.90;99.90;;;;;;6128608;23;20242;-86
2021/12/24 17:26:14;;;;;;;102.00;65.22;;;8.80;99.90;;;;;;6102849;23;20188;-85
2021/12/24 17:28:41;;;;;;;89.63;46.67;;;8.80;99.90;;;;;;6128470;23;20449;-85
2021/12/24 17:31:07;;;;;;;102.47;70.05;;;8.80;99.90;;;;;;6128442;23;20172;-85
2021/12/24 17:33:33;;;;;;;93.23;61.07;;;8.70;99.90;;;;;;6128110;23;20166;-85